sensor_id;sensor_type;location;lat;lon;timestamp;temperature;humidity
17956;DHT22;27666;51.498;11.966;2023-02-18T00:00:14;9.20;99.90
17956;DHT22;27666;51.498;11.966;2023-02-18T00:03:02;9.10;99.90
17956;DHT22;27666;51.498;11.966;2023-02-18T00:05:49;9.10;99.90
17956;DHT22;27666;51.498;11.966;2023-02-18T00:08:35;9.00;99.90
17956;DHT22;27666;51.498;11.966;2023-02-18T00:11:23;8.80;99.90
17956;DHT22;27666;51.498;11.966;2023-02-18T00:14:13;8.70;99.90
17956;DHT22;27666;51.498;11.966;2023-02-18T00:16:59;8.70;99.90
17956;DHT22;27666;51.498;11.966;2023-02-18T00:19:46;8.80;99.90
17956;DHT22;27666;51.498;11.966;2023-02-18T00:22:34;8.60;99.90
17956;DHT22;27666;51.498;11.966;2023-02-18T00:25:20;8.60;99.90
17956;DHT22;27666;51.498;11.966;2023-02-18T00:28:09;8.60;99.90
17956;DHT22;27666;51.498;11.966;2023-02-18T00:30:55;8.60;99.90
17956;DHT22;27666;51.498;11.966;2023-02-18T00:33:42;8.60;99.90
17956;DHT22;27666;51.498;11.966;2023-02-18T00:36:29;8.50;99.90
17956;DHT22;27666;51.498;11.966;2023-02-18T00:39:16;8.60;99.90
17956;DHT22;27666;51.498;11.966;2023-02-18T00:42:03;8.60;99.90
17956;DHT22;27666;51.498;11.966;2023-02-18T00:44:51;8.60;99.90
17956;DHT22;27666;51.498;11.966;2023-02-18T00:47:37;8.50;99.90
17956;DHT22;27666;51.498;11.966;2023-02-18T00:50:24;8.60;99.90
17956;DHT22;27666;51.498;11.966;2023-02-18T00:53:10;8.50;99.90
17956;DHT22;27666;51.498;11.966;2023-02-18T00:55:57;8.60;99.90
17956;DHT22;27666;51.498;11.966;2023-02-18T00:58:44;8.60;99.90
17956;DHT22;27666;51.498;11.966;2023-02-18T01:01:31;8.60;99.90
17956;DHT22;27666;51.498;11.966;2023-02-18T01:04:19;8.50;99.90
17956;DHT22;27666;51.498;11.966;2023-02-18T01:07:06;8.60;99.90
17956;DHT22;27666;51.498;11.966;2023-02-18T01:09:54;8.60;99.90
17956;DHT22;27666;51.498;11.966;2023-02-18T01:12:41;8.60;99.90
17956;DHT22;27666;51.498;11.966;2023-02-18T01:15:27;8.60;99.90
17956;DHT22;27666;51.498;11.966;2023-02-18T01:18:15;8.50;99.90
17956;DHT22;27666;51.498;11.966;2023-02-18T01:21:02;8.50;99.90
17956;DHT22;27666;51.498;11.966;2023-02-18T01:23:49;8.50;99.90
17956;DHT22;27666;51.498;11.966;2023-02-18T01:26:35;8.40;99.90
17956;DHT22;27666;51.498;11.966;2023-02-18T01:29:22;8.40;99.90
17956;DHT22;27666;51.498;11.966;2023-02-18T01:32:09;8.50;99.90
17956;DHT22;27666;51.498;11.966;2023-02-18T01:34:59;8.40;99.90
17956;DHT22;27666;51.498;11.966;2023-02-18T01:37:49;8.40;99.90
17956;DHT22;27666;51.498;11.966;2023-02-18T01:40:36;8.40;99.90
17956;DHT22;27666;51.498;11.966;2023-02-18T01:43:31;8.50;99.90
17956;DHT22;27666;51.498;11.966;2023-02-18T01:46:21;8.60;99.90
17956;DHT22;27666;51.498;11.966;2023-02-18T01:49:13;8.60;99.90
17956;DHT22;27666;51.498;11.966;2023-02-18T01:52:05;8.70;99.90
17956;DHT22;27666;51.498;11.966;2023-02-18T01:54:55;8.80;99.90
17956;DHT22;27666;51.498;11.966;2023-02-18T01:57:42;8.80;99.90
17956;DHT22;27666;51.498;11.966;2023-02-18T02:00:29;8.80;99.90
17956;DHT22;27666;51.498;11.966;2023-02-18T02:03:16;8.90;99.90
17956;DHT22;27666;51.498;11.966;2023-02-18T02:06:11;9.00;99.90
17956;DHT22;27666;51.498;11.966;2023-02-18T02:09:02;9.10;99.90
17956;DHT22;27666;51.498;11.966;2023-02-18T02:12:17;9.00;99.90
17956;DHT22;27666;51.498;11.966;2023-02-18T02:15:22;9.00;99.90
17956;DHT22;27666;51.498;11.966;2023-02-18T02:18:21;9.10;99.90
17956;DHT22;27666;51.498;11.966;2023-02-18T02:21:54;9.00;99.90
17956;DHT22;27666;51.498;11.966;2023-02-18T02:25:00;8.90;99.90
17956;DHT22;27666;51.498;11.966;2023-02-18T02:31:40;9.00;99.90
17956;DHT22;27666;51.498;11.966;2023-02-18T02:34:47;9.00;99.90
17956;DHT22;27666;51.498;11.966;2023-02-18T02:37:42;9.20;99.90
17956;DHT22;27666;51.498;11.966;2023-02-18T02:40:37;9.20;99.90
17956;DHT22;27666;51.498;11.966;2023-02-18T02:43:33;9.10;99.90
17956;DHT22;27666;51.498;11.966;2023-02-18T02:46:27;9.10;99.90
17956;DHT22;27666;51.498;11.966;2023-02-18T02:49:24;9.10;99.90
17956;DHT22;27666;51.498;11.966;2023-02-18T02:52:18;9.10;99.90
17956;DHT22;27666;51.498;11.966;2023-02-18T02:55:08;9.20;99.90
17956;DHT22;27666;51.498;11.966;2023-02-18T02:57:55;9.20;99.90
17956;DHT22;27666;51.498;11.966;2023-02-18T03:00:53;9.30;99.90
17956;DHT22;27666;51.498;11.966;2023-02-18T03:04:02;9.40;99.90
17956;DHT22;27666;51.498;11.966;2023-02-18T03:07:04;9.30;99.90
17956;DHT22;27666;51.498;11.966;2023-02-18T03:10:08;9.30;99.90
17956;DHT22;27666;51.498;11.966;2023-02-18T03:13:06;9.20;99.90
17956;DHT22;27666;51.498;11.966;2023-02-18T03:15:56;9.20;99.90
17956;DHT22;27666;51.498;11.966;2023-02-18T03:18:47;9.20;99.90
17956;DHT22;27666;51.498;11.966;2023-02-18T03:21:39;9.10;99.90
17956;DHT22;27666;51.498;11.966;2023-02-18T03:24:30;9.10;99.90
17956;DHT22;27666;51.498;11.966;2023-02-18T03:27:22;9.20;99.90
17956;DHT22;27666;51.498;11.966;2023-02-18T03:30:15;9.20;99.90
17956;DHT22;27666;51.498;11.966;2023-02-18T03:33:03;9.20;99.90
17956;DHT22;27666;51.498;11.966;2023-02-18T03:35:52;9.20;99.90
17956;DHT22;27666;51.498;11.966;2023-02-18T03:38:44;9.20;99.90
17956;DHT22;27666;51.498;11.966;2023-02-18T03:41:34;9.20;99.90
17956;DHT22;27666;51.498;11.966;2023-02-18T03:44:23;9.20;99.90
17956;DHT22;27666;51.498;11.966;2023-02-18T03:47:10;9.30;99.90
17956;DHT22;27666;51.498;11.966;2023-02-18T03:49:57;9.30;99.90
17956;DHT22;27666;51.498;11.966;2023-02-18T03:52:43;9.30;99.90
17956;DHT22;27666;51.498;11.966;2023-02-18T03:55:29;9.30;99.90
17956;DHT22;27666;51.498;11.966;2023-02-18T03:58:16;9.30;99.90
17956;DHT22;27666;51.498;11.966;2023-02-18T04:01:04;9.30;99.90
17956;DHT22;27666;51.498;11.966;2023-02-18T04:03:51;9.30;99.90
17956;DHT22;27666;51.498;11.966;2023-02-18T04:06:39;9.20;99.90
17956;DHT22;27666;51.498;11.966;2023-02-18T04:09:25;9.20;99.90
17956;DHT22;27666;51.498;11.966;2023-02-18T04:12:12;9.20;99.90
17956;DHT22;27666;51.498;11.966;2023-02-18T04:14:58;9.20;99.90
17956;DHT22;27666;51.498;11.966;2023-02-18T04:17:46;9.20;99.90
17956;DHT22;27666;51.498;11.966;2023-02-18T04:20:33;9.10;99.90
17956;DHT22;27666;51.498;11.966;2023-02-18T04:23:19;9.10;99.90
17956;DHT22;27666;51.498;11.966;2023-02-18T04:26:06;9.10;99.90
17956;DHT22;27666;51.498;11.966;2023-02-18T04:28:53;9.10;99.90
17956;DHT22;27666;51.498;11.966;2023-02-18T04:31:39;9.20;99.90
17956;DHT22;27666;51.498;11.966;2023-02-18T04:34:27;9.20;99.90
17956;DHT22;27666;51.498;11.966;2023-02-18T04:37:13;9.20;99.90
17956;DHT22;27666;51.498;11.966;2023-02-18T04:40:00;9.20;99.90
17956;DHT22;27666;51.498;11.966;2023-02-18T04:42:47;9.20;99.90
17956;DHT22;27666;51.498;11.966;2023-02-18T04:45:33;9.20;99.90
17956;DHT22;27666;51.498;11.966;2023-02-18T04:48:20;9.20;99.90
17956;DHT22;27666;51.498;11.966;2023-02-18T04:51:07;9.20;99.90
17956;DHT22;27666;51.498;11.966;2023-02-18T04:53:54;9.20;99.90
17956;DHT22;27666;51.498;11.966;2023-02-18T04:56:40;9.30;99.90
17956;DHT22;27666;51.498;11.966;2023-02-18T04:59:27;9.30;99.90
17956;DHT22;27666;51.498;11.966;2023-02-18T05:02:13;9.30;99.90
17956;DHT22;27666;51.498;11.966;2023-02-18T05:04:59;9.30;99.90
17956;DHT22;27666;51.498;11.966;2023-02-18T05:07:47;9.30;99.90
17956;DHT22;27666;51.498;11.966;2023-02-18T05:10:34;9.30;99.90
17956;DHT22;27666;51.498;11.966;2023-02-18T05:13:20;9.30;99.90
17956;DHT22;27666;51.498;11.966;2023-02-18T05:16:07;9.40;99.90
17956;DHT22;27666;51.498;11.966;2023-02-18T05:18:54;9.30;99.90
17956;DHT22;27666;51.498;11.966;2023-02-18T05:21:41;9.30;99.90
17956;DHT22;27666;51.498;11.966;2023-02-18T05:24:29;9.40;99.90
17956;DHT22;27666;51.498;11.966;2023-02-18T05:27:15;9.30;99.90
17956;DHT22;27666;51.498;11.966;2023-02-18T05:30:02;9.40;99.90
17956;DHT22;27666;51.498;11.966;2023-02-18T05:32:48;9.40;99.90
17956;DHT22;27666;51.498;11.966;2023-02-18T05:35:35;9.40;99.90
17956;DHT22;27666;51.498;11.966;2023-02-18T05:38:22;9.40;99.90
17956;DHT22;27666;51.498;11.966;2023-02-18T05:41:10;9.40;99.90
17956;DHT22;27666;51.498;11.966;2023-02-18T05:43:56;9.40;99.90
17956;DHT22;27666;51.498;11.966;2023-02-18T05:47:02;9.40;99.90
17956;DHT22;27666;51.498;11.966;2023-02-18T05:49:49;9.40;99.90
17956;DHT22;27666;51.498;11.966;2023-02-18T05:52:36;9.40;99.90
17956;DHT22;27666;51.498;11.966;2023-02-18T05:55:22;9.40;99.90
17956;DHT22;27666;51.498;11.966;2023-02-18T05:58:10;9.50;99.90
17956;DHT22;27666;51.498;11.966;2023-02-18T06:00:58;9.50;99.90
17956;DHT22;27666;51.498;11.966;2023-02-18T06:03:44;9.50;99.90
17956;DHT22;27666;51.498;11.966;2023-02-18T06:06:30;9.40;99.90
17956;DHT22;27666;51.498;11.966;2023-02-18T06:09:17;9.40;99.90
17956;DHT22;27666;51.498;11.966;2023-02-18T06:12:04;9.40;99.90
17956;DHT22;27666;51.498;11.966;2023-02-18T06:14:52;9.40;99.90
17956;DHT22;27666;51.498;11.966;2023-02-18T06:17:39;9.40;99.90
17956;DHT22;27666;51.498;11.966;2023-02-18T06:20:25;9.30;99.90
17956;DHT22;27666;51.498;11.966;2023-02-18T06:23:11;9.30;99.90
17956;DHT22;27666;51.498;11.966;2023-02-18T06:25:58;9.20;99.90
17956;DHT22;27666;51.498;11.966;2023-02-18T06:28:45;9.20;99.90
17956;DHT22;27666;51.498;11.966;2023-02-18T06:31:32;9.20;99.90
17956;DHT22;27666;51.498;11.966;2023-02-18T06:34:19;9.20;99.90
17956;DHT22;27666;51.498;11.966;2023-02-18T06:37:06;9.20;99.90
17956;DHT22;27666;51.498;11.966;2023-02-18T06:39:52;9.20;99.90
17956;DHT22;27666;51.498;11.966;2023-02-18T06:42:38;9.20;99.90
17956;DHT22;27666;51.498;11.966;2023-02-18T06:45:25;9.20;99.90
17956;DHT22;27666;51.498;11.966;2023-02-18T06:48:14;9.30;99.90
17956;DHT22;27666;51.498;11.966;2023-02-18T06:51:01;9.30;99.90
17956;DHT22;27666;51.498;11.966;2023-02-18T06:53:48;9.30;99.90
17956;DHT22;27666;51.498;11.966;2023-02-18T06:56:34;9.30;99.90
17956;DHT22;27666;51.498;11.966;2023-02-18T06:59:20;9.30;99.90
17956;DHT22;27666;51.498;11.966;2023-02-18T07:02:08;9.30;99.90
17956;DHT22;27666;51.498;11.966;2023-02-18T07:04:56;9.30;99.90
17956;DHT22;27666;51.498;11.966;2023-02-18T07:07:43;9.30;99.90
17956;DHT22;27666;51.498;11.966;2023-02-18T07:10:29;9.40;99.90
17956;DHT22;27666;51.498;11.966;2023-02-18T07:13:16;9.40;99.90
17956;DHT22;27666;51.498;11.966;2023-02-18T07:16:02;9.40;99.90
17956;DHT22;27666;51.498;11.966;2023-02-18T07:18:49;9.40;99.90
17956;DHT22;27666;51.498;11.966;2023-02-18T07:21:36;9.40;99.90
17956;DHT22;27666;51.498;11.966;2023-02-18T07:24:23;9.40;99.90
17956;DHT22;27666;51.498;11.966;2023-02-18T07:27:10;9.50;99.90
17956;DHT22;27666;51.498;11.966;2023-02-18T07:29:57;9.60;99.90
17956;DHT22;27666;51.498;11.966;2023-02-18T07:32:43;9.60;99.90
17956;DHT22;27666;51.498;11.966;2023-02-18T07:35:30;9.60;99.90
17956;DHT22;27666;51.498;11.966;2023-02-18T07:38:18;9.60;99.90
17956;DHT22;27666;51.498;11.966;2023-02-18T07:41:04;9.60;99.90
17956;DHT22;27666;51.498;11.966;2023-02-18T07:43:51;9.60;99.90
17956;DHT22;27666;51.498;11.966;2023-02-18T07:46:39;9.50;99.90
17956;DHT22;27666;51.498;11.966;2023-02-18T07:49:26;9.50;99.90
17956;DHT22;27666;51.498;11.966;2023-02-18T07:52:13;9.60;99.90
17956;DHT22;27666;51.498;11.966;2023-02-18T07:55:01;9.70;99.90
17956;DHT22;27666;51.498;11.966;2023-02-18T07:57:48;9.70;99.90
17956;DHT22;27666;51.498;11.966;2023-02-18T08:00:45;9.70;99.90
17956;DHT22;27666;51.498;11.966;2023-02-18T08:03:34;9.70;99.90
17956;DHT22;27666;51.498;11.966;2023-02-18T08:06:24;9.70;99.90
17956;DHT22;27666;51.498;11.966;2023-02-18T08:09:11;9.80;99.90
17956;DHT22;27666;51.498;11.966;2023-02-18T08:11:59;9.80;99.90
17956;DHT22;27666;51.498;11.966;2023-02-18T08:14:46;9.90;99.90
17956;DHT22;27666;51.498;11.966;2023-02-18T08:17:32;10.00;99.90
17956;DHT22;27666;51.498;11.966;2023-02-18T08:20:19;10.10;99.90
17956;DHT22;27666;51.498;11.966;2023-02-18T08:23:06;10.20;99.90
17956;DHT22;27666;51.498;11.966;2023-02-18T08:28:41;10.40;99.90
17956;DHT22;27666;51.498;11.966;2023-02-18T08:31:29;10.60;99.90
17956;DHT22;27666;51.498;11.966;2023-02-18T08:34:16;10.60;99.90
17956;DHT22;27666;51.498;11.966;2023-02-18T08:42:37;11.10;99.90
17956;DHT22;27666;51.498;11.966;2023-02-18T08:48:13;11.20;99.90
17956;DHT22;27666;51.498;11.966;2023-02-18T08:54:02;11.30;99.90
17956;DHT22;27666;51.498;11.966;2023-02-18T08:56:48;11.30;99.90
17956;DHT22;27666;51.498;11.966;2023-02-18T08:59:35;11.50;99.90
17956;DHT22;27666;51.498;11.966;2023-02-18T09:02:23;11.50;99.90
17956;DHT22;27666;51.498;11.966;2023-02-18T09:05:11;11.50;99.90
17956;DHT22;27666;51.498;11.966;2023-02-18T09:07:57;11.50;99.90
17956;DHT22;27666;51.498;11.966;2023-02-18T09:10:44;11.50;99.90
17956;DHT22;27666;51.498;11.966;2023-02-18T09:13:31;11.50;99.90
17956;DHT22;27666;51.498;11.966;2023-02-18T09:16:18;11.40;99.90
17956;DHT22;27666;51.498;11.966;2023-02-18T09:19:06;11.50;99.90
17956;DHT22;27666;51.498;11.966;2023-02-18T09:21:53;11.50;99.90
17956;DHT22;27666;51.498;11.966;2023-02-18T09:24:44;11.50;99.90
17956;DHT22;27666;51.498;11.966;2023-02-18T09:27:31;11.70;99.90
17956;DHT22;27666;51.498;11.966;2023-02-18T09:30:17;11.70;99.90
17956;DHT22;27666;51.498;11.966;2023-02-18T09:33:04;11.70;99.90
17956;DHT22;27666;51.498;11.966;2023-02-18T09:35:52;11.80;99.90
17956;DHT22;27666;51.498;11.966;2023-02-18T09:38:39;11.70;99.90
17956;DHT22;27666;51.498;11.966;2023-02-18T09:41:31;11.80;99.90
17956;DHT22;27666;51.498;11.966;2023-02-18T09:44:22;11.80;99.90
17956;DHT22;27666;51.498;11.966;2023-02-18T09:47:13;11.90;99.90
17956;DHT22;27666;51.498;11.966;2023-02-18T09:50:04;12.00;99.90
17956;DHT22;27666;51.498;11.966;2023-02-18T09:52:53;12.00;99.90
17956;DHT22;27666;51.498;11.966;2023-02-18T09:55:40;12.10;99.90
17956;DHT22;27666;51.498;11.966;2023-02-18T09:58:29;12.10;99.90
17956;DHT22;27666;51.498;11.966;2023-02-18T10:01:21;12.30;99.90
17956;DHT22;27666;51.498;11.966;2023-02-18T10:04:13;12.40;99.90
17956;DHT22;27666;51.498;11.966;2023-02-18T10:07:00;12.50;99.90
17956;DHT22;27666;51.498;11.966;2023-02-18T10:09:51;12.80;99.90
17956;DHT22;27666;51.498;11.966;2023-02-18T10:12:39;12.70;99.90
17956;DHT22;27666;51.498;11.966;2023-02-18T10:15:29;12.70;99.90
17956;DHT22;27666;51.498;11.966;2023-02-18T10:18:24;12.70;99.90
17956;DHT22;27666;51.498;11.966;2023-02-18T10:21:14;12.80;99.90
17956;DHT22;27666;51.498;11.966;2023-02-18T10:24:04;12.80;99.90
17956;DHT22;27666;51.498;11.966;2023-02-18T10:26:53;12.80;99.90
17956;DHT22;27666;51.498;11.966;2023-02-18T10:29:40;12.80;99.90
17956;DHT22;27666;51.498;11.966;2023-02-18T10:32:32;13.00;99.90
17956;DHT22;27666;51.498;11.966;2023-02-18T10:35:23;13.00;99.90
17956;DHT22;27666;51.498;11.966;2023-02-18T10:38:15;12.90;99.90
17956;DHT22;27666;51.498;11.966;2023-02-18T10:41:12;12.80;99.90
17956;DHT22;27666;51.498;11.966;2023-02-18T10:44:09;12.90;99.90
17956;DHT22;27666;51.498;11.966;2023-02-18T10:47:08;13.00;99.90
17956;DHT22;27666;51.498;11.966;2023-02-18T10:50:02;13.10;99.90
17956;DHT22;27666;51.498;11.966;2023-02-18T10:52:51;13.10;99.90
17956;DHT22;27666;51.498;11.966;2023-02-18T10:55:42;13.10;99.90
17956;DHT22;27666;51.498;11.966;2023-02-18T10:58:34;13.00;99.90
17956;DHT22;27666;51.498;11.966;2023-02-18T11:01:22;13.00;99.90
17956;DHT22;27666;51.498;11.966;2023-02-18T11:04:15;12.90;99.90
17956;DHT22;27666;51.498;11.966;2023-02-18T11:07:04;12.90;99.90
17956;DHT22;27666;51.498;11.966;2023-02-18T11:09:52;12.90;99.90
17956;DHT22;27666;51.498;11.966;2023-02-18T11:12:44;12.90;99.90
17956;DHT22;27666;51.498;11.966;2023-02-18T11:15:31;12.80;99.90
17956;DHT22;27666;51.498;11.966;2023-02-18T11:18:29;12.80;99.90
17956;DHT22;27666;51.498;11.966;2023-02-18T11:21:25;12.80;99.90
17956;DHT22;27666;51.498;11.966;2023-02-18T11:24:15;12.70;99.90
17956;DHT22;27666;51.498;11.966;2023-02-18T11:27:07;12.60;99.90
17956;DHT22;27666;51.498;11.966;2023-02-18T11:30:03;12.50;99.90
17956;DHT22;27666;51.498;11.966;2023-02-18T11:32:52;12.50;99.90
17956;DHT22;27666;51.498;11.966;2023-02-18T11:35:48;12.50;99.90
17956;DHT22;27666;51.498;11.966;2023-02-18T11:38:37;12.50;99.90
17956;DHT22;27666;51.498;11.966;2023-02-18T11:41:33;12.50;99.90
17956;DHT22;27666;51.498;11.966;2023-02-18T11:44:22;12.60;99.90
17956;DHT22;27666;51.498;11.966;2023-02-18T11:47:20;12.60;99.90
17956;DHT22;27666;51.498;11.966;2023-02-18T11:50:16;12.60;99.90
17956;DHT22;27666;51.498;11.966;2023-02-18T11:53:27;12.70;99.90
17956;DHT22;27666;51.498;11.966;2023-02-18T11:56:16;12.70;99.90
17956;DHT22;27666;51.498;11.966;2023-02-18T11:59:03;12.70;99.90
17956;DHT22;27666;51.498;11.966;2023-02-18T12:01:55;12.70;99.90
17956;DHT22;27666;51.498;11.966;2023-02-18T12:04:46;12.80;99.90
17956;DHT22;27666;51.498;11.966;2023-02-18T12:07:40;12.70;99.90
17956;DHT22;27666;51.498;11.966;2023-02-18T12:10:31;12.80;99.90
17956;DHT22;27666;51.498;11.966;2023-02-18T12:13:23;12.60;99.90
17956;DHT22;27666;51.498;11.966;2023-02-18T12:16:19;12.50;99.90
17956;DHT22;27666;51.498;11.966;2023-02-18T12:19:44;12.50;99.90
17956;DHT22;27666;51.498;11.966;2023-02-18T12:22:40;12.50;99.90
17956;DHT22;27666;51.498;11.966;2023-02-18T12:25:36;12.50;99.90
17956;DHT22;27666;51.498;11.966;2023-02-18T12:28:40;12.60;99.90
17956;DHT22;27666;51.498;11.966;2023-02-18T12:31:43;12.60;99.90
17956;DHT22;27666;51.498;11.966;2023-02-18T12:34:56;12.60;99.90
17956;DHT22;27666;51.498;11.966;2023-02-18T12:41:37;12.60;99.90
17956;DHT22;27666;51.498;11.966;2023-02-18T12:44:33;12.70;99.90
17956;DHT22;27666;51.498;11.966;2023-02-18T12:47:42;12.80;99.90
17956;DHT22;27666;51.498;11.966;2023-02-18T12:50:54;12.80;99.90
17956;DHT22;27666;51.498;11.966;2023-02-18T12:53:52;12.90;99.90
17956;DHT22;27666;51.498;11.966;2023-02-18T12:57:22;12.90;99.90
17956;DHT22;27666;51.498;11.966;2023-02-18T13:04:02;13.00;99.90
17956;DHT22;27666;51.498;11.966;2023-02-18T13:07:23;13.10;99.90
17956;DHT22;27666;51.498;11.966;2023-02-18T13:10:33;13.10;99.90
17956;DHT22;27666;51.498;11.966;2023-02-18T13:13:27;13.10;99.90
17956;DHT22;27666;51.498;11.966;2023-02-18T13:16:18;13.00;99.90
17956;DHT22;27666;51.498;11.966;2023-02-18T13:19:13;13.00;99.90
17956;DHT22;27666;51.498;11.966;2023-02-18T13:22:05;13.10;99.90
17956;DHT22;27666;51.498;11.966;2023-02-18T13:24:56;13.20;99.90
17956;DHT22;27666;51.498;11.966;2023-02-18T13:27:49;13.20;99.90
17956;DHT22;27666;51.498;11.966;2023-02-18T13:30:43;13.40;99.90
17956;DHT22;27666;51.498;11.966;2023-02-18T13:33:38;13.40;99.90
17956;DHT22;27666;51.498;11.966;2023-02-18T13:36:39;13.50;99.90
17956;DHT22;27666;51.498;11.966;2023-02-18T13:39:30;13.50;99.90
17956;DHT22;27666;51.498;11.966;2023-02-18T13:42:33;13.40;99.90
17956;DHT22;27666;51.498;11.966;2023-02-18T13:45:29;13.40;99.90
17956;DHT22;27666;51.498;11.966;2023-02-18T13:48:26;13.30;99.90
17956;DHT22;27666;51.498;11.966;2023-02-18T13:51:15;13.30;99.90
17956;DHT22;27666;51.498;11.966;2023-02-18T13:54:07;13.40;99.90
17956;DHT22;27666;51.498;11.966;2023-02-18T13:57:03;13.40;99.90
17956;DHT22;27666;51.498;11.966;2023-02-18T13:59:55;13.20;99.90
17956;DHT22;27666;51.498;11.966;2023-02-18T14:02:56;13.00;99.90
17956;DHT22;27666;51.498;11.966;2023-02-18T14:05:45;12.90;99.90
17956;DHT22;27666;51.498;11.966;2023-02-18T14:08:33;12.60;99.90
17956;DHT22;27666;51.498;11.966;2023-02-18T14:11:39;12.50;99.90
17956;DHT22;27666;51.498;11.966;2023-02-18T14:14:36;12.50;99.90
17956;DHT22;27666;51.498;11.966;2023-02-18T14:17:33;12.50;99.90
17956;DHT22;27666;51.498;11.966;2023-02-18T14:20:47;12.50;99.90
17956;DHT22;27666;51.498;11.966;2023-02-18T14:23:41;12.50;99.90
17956;DHT22;27666;51.498;11.966;2023-02-18T14:26:38;12.50;99.90
17956;DHT22;27666;51.498;11.966;2023-02-18T14:29:30;12.40;99.90
17956;DHT22;27666;51.498;11.966;2023-02-18T14:32:18;12.40;99.90
17956;DHT22;27666;51.498;11.966;2023-02-18T14:35:21;12.40;99.90
17956;DHT22;27666;51.498;11.966;2023-02-18T14:38:25;12.50;99.90
17956;DHT22;27666;51.498;11.966;2023-02-18T14:41:24;12.50;99.90
17956;DHT22;27666;51.498;11.966;2023-02-18T14:44:36;12.50;99.90
17956;DHT22;27666;51.498;11.966;2023-02-18T14:47:36;12.50;99.90
17956;DHT22;27666;51.498;11.966;2023-02-18T14:50:31;12.40;99.90
17956;DHT22;27666;51.498;11.966;2023-02-18T14:53:21;12.20;99.90
17956;DHT22;27666;51.498;11.966;2023-02-18T14:56:09;12.10;99.90
17956;DHT22;27666;51.498;11.966;2023-02-18T14:59:00;12.10;99.90
17956;DHT22;27666;51.498;11.966;2023-02-18T15:01:48;12.20;99.90
17956;DHT22;27666;51.498;11.966;2023-02-18T15:04:35;12.10;99.90
17956;DHT22;27666;51.498;11.966;2023-02-18T15:07:22;12.10;99.90
17956;DHT22;27666;51.498;11.966;2023-02-18T15:10:14;12.10;99.90
17956;DHT22;27666;51.498;11.966;2023-02-18T15:13:01;12.10;99.90
17956;DHT22;27666;51.498;11.966;2023-02-18T15:15:50;12.10;99.90
17956;DHT22;27666;51.498;11.966;2023-02-18T15:18:40;12.10;99.90
17956;DHT22;27666;51.498;11.966;2023-02-18T15:21:29;12.10;99.90
17956;DHT22;27666;51.498;11.966;2023-02-18T15:24:23;12.00;99.90
17956;DHT22;27666;51.498;11.966;2023-02-18T15:27:14;11.90;99.90
17956;DHT22;27666;51.498;11.966;2023-02-18T15:30:20;12.00;99.90
17956;DHT22;27666;51.498;11.966;2023-02-18T15:33:10;11.90;99.90
17956;DHT22;27666;51.498;11.966;2023-02-18T15:36:02;11.90;99.90
17956;DHT22;27666;51.498;11.966;2023-02-18T15:38:49;11.70;99.90
17956;DHT22;27666;51.498;11.966;2023-02-18T15:41:36;11.70;99.90
17956;DHT22;27666;51.498;11.966;2023-02-18T15:44:25;11.40;99.90
17956;DHT22;27666;51.498;11.966;2023-02-18T15:47:13;11.40;99.90
17956;DHT22;27666;51.498;11.966;2023-02-18T15:50:01;11.40;99.90
17956;DHT22;27666;51.498;11.966;2023-02-18T15:52:50;11.30;99.90
17956;DHT22;27666;51.498;11.966;2023-02-18T15:55:40;11.30;99.90
17956;DHT22;27666;51.498;11.966;2023-02-18T15:58:29;11.50;99.90
17956;DHT22;27666;51.498;11.966;2023-02-18T16:01:26;11.40;99.90
17956;DHT22;27666;51.498;11.966;2023-02-18T16:04:14;11.40;99.90
17956;DHT22;27666;51.498;11.966;2023-02-18T16:07:14;11.50;99.90
17956;DHT22;27666;51.498;11.966;2023-02-18T16:10:16;11.50;99.90
17956;DHT22;27666;51.498;11.966;2023-02-18T16:13:04;11.40;99.90
17956;DHT22;27666;51.498;11.966;2023-02-18T16:15:51;11.40;99.90
17956;DHT22;27666;51.498;11.966;2023-02-18T16:18:40;11.40;99.90
17956;DHT22;27666;51.498;11.966;2023-02-18T16:21:32;11.30;99.90
17956;DHT22;27666;51.498;11.966;2023-02-18T16:24:25;11.30;99.90
17956;DHT22;27666;51.498;11.966;2023-02-18T16:27:15;11.30;99.90
17956;DHT22;27666;51.498;11.966;2023-02-18T16:30:06;11.40;99.90
17956;DHT22;27666;51.498;11.966;2023-02-18T16:32:57;11.40;99.90
17956;DHT22;27666;51.498;11.966;2023-02-18T16:35:45;11.30;99.90
17956;DHT22;27666;51.498;11.966;2023-02-18T16:38:35;11.40;99.90
17956;DHT22;27666;51.498;11.966;2023-02-18T16:41:21;11.40;99.90
17956;DHT22;27666;51.498;11.966;2023-02-18T16:44:12;11.40;99.90
17956;DHT22;27666;51.498;11.966;2023-02-18T16:46:59;11.40;99.90
17956;DHT22;27666;51.498;11.966;2023-02-18T16:49:48;11.40;99.90
17956;DHT22;27666;51.498;11.966;2023-02-18T16:52:36;11.40;99.90
17956;DHT22;27666;51.498;11.966;2023-02-18T16:55:24;11.40;99.90
17956;DHT22;27666;51.498;11.966;2023-02-18T16:58:11;11.30;99.90
17956;DHT22;27666;51.498;11.966;2023-02-18T17:00:58;11.40;99.90
17956;DHT22;27666;51.498;11.966;2023-02-18T17:03:44;11.30;99.90
17956;DHT22;27666;51.498;11.966;2023-02-18T17:06:33;11.30;99.90
17956;DHT22;27666;51.498;11.966;2023-02-18T17:09:23;11.40;99.90
17956;DHT22;27666;51.498;11.966;2023-02-18T17:12:12;11.40;99.90
17956;DHT22;27666;51.498;11.966;2023-02-18T17:14:58;11.40;99.90
17956;DHT22;27666;51.498;11.966;2023-02-18T17:17:45;11.50;99.90
17956;DHT22;27666;51.498;11.966;2023-02-18T17:20:32;11.40;99.90
17956;DHT22;27666;51.498;11.966;2023-02-18T17:23:20;11.40;99.90
17956;DHT22;27666;51.498;11.966;2023-02-18T17:26:15;11.40;99.90
17956;DHT22;27666;51.498;11.966;2023-02-18T17:29:01;11.40;99.90
17956;DHT22;27666;51.498;11.966;2023-02-18T17:31:56;11.30;99.90
17956;DHT22;27666;51.498;11.966;2023-02-18T17:34:50;11.30;99.90
17956;DHT22;27666;51.498;11.966;2023-02-18T17:37:37;11.20;99.90
17956;DHT22;27666;51.498;11.966;2023-02-18T17:40:25;11.20;99.90
17956;DHT22;27666;51.498;11.966;2023-02-18T17:43:14;11.20;99.90
17956;DHT22;27666;51.498;11.966;2023-02-18T17:46:01;11.20;99.90
17956;DHT22;27666;51.498;11.966;2023-02-18T17:48:48;11.20;99.90
17956;DHT22;27666;51.498;11.966;2023-02-18T17:51:35;11.20;99.90
17956;DHT22;27666;51.498;11.966;2023-02-18T17:54:24;11.10;99.90
17956;DHT22;27666;51.498;11.966;2023-02-18T17:57:12;11.10;99.90
17956;DHT22;27666;51.498;11.966;2023-02-18T18:00:00;11.10;99.90
17956;DHT22;27666;51.498;11.966;2023-02-18T18:02:46;11.00;99.90
17956;DHT22;27666;51.498;11.966;2023-02-18T18:05:34;11.00;99.90
17956;DHT22;27666;51.498;11.966;2023-02-18T18:08:20;11.00;99.90
17956;DHT22;27666;51.498;11.966;2023-02-18T18:11:11;11.00;99.90
17956;DHT22;27666;51.498;11.966;2023-02-18T18:13:58;11.00;99.90